Eurasian Highway — 7JKY — position and weather

sailwx.info

Track history (hours):
 
Tides and Currents Weather Stations Pressure Air Temp Water Temp Dewpoint Dewpoint Depression Visibility Wind Speed Wind Dir Waves Ship Positions

Eurasian Highway

Last reported at 2016-May-26 04:34 UTC. Time now 2016-May-27 06:35 UTC.
Position N 27°02' W 079°43'.

Length 199 m; draft 9 m.

Type: Cargo ship. MMSI: 432839000.

Date/timePositionNaut miles runAvg speedWind from/ knotsBaromVisibWave heightAir tempDewpointWater temp
2016-May-26 04:34N 27°02' W 079°43'2221.6
2016-May-26 03:33N 26°41' W 079°45'2121.3
2016-May-26 02:33N 26°19' W 079°48'2121.2
2016-May-26 01:33N 25°58' W 079°49'2121.0
2016-May-26 00:33N 25°38' W 079°53'  
2016-May-22 12:28N 20°25' W 096°20'1617.4
2016-May-22 11:33N 20°10' W 096°14'1717.4
2016-May-22 10:33N 19°53' W 096°09'1717.3
2016-May-22 09:33N 19°37' W 096°04'1717.4
2016-May-22 08:33N 19°20' W 095°57'1111.2
2016-May-22 07:33N 19°12' W 096°05'3 2.7
2016-May-22 06:32N 19°13' W 096°08'0 0.0
2016-May-22 05:32N 19°13' W 096°08'0 0.0
2016-May-22 04:32N 19°13' W 096°08'0 0.0
2016-May-22 03:32N 19°13' W 096°08'0 0.0
2016-May-22 02:29N 19°13' W 096°08'0 0.0
2016-May-22 01:32N 19°13' W 096°08'0 0.0
2016-May-22 00:32N 19°13' W 096°08'0 0.0
2016-May-21 23:32N 19°13' W 096°08'0 0.0
2016-May-21 22:32N 19°13' W 096°08'0 0.0
2016-May-21 21:32N 19°13' W 096°08'0 0.0
2016-May-21 20:32N 19°13' W 096°08'0 0.0
2016-May-21 19:32N 19°13' W 096°08'0 0.0
2016-May-21 18:32N 19°13' W 096°08'0 0.0
2016-May-21 17:32N 19°13' W 096°08'0 0.0
2016-May-21 16:29N 19°13' W 096°08'0 0.0
2016-May-21 15:32N 19°13' W 096°08'0 0.0
2016-May-21 14:32N 19°13' W 096°08'0 0.0
2016-May-21 13:32N 19°13' W 096°08'0 0.0
2016-May-21 12:29N 19°13' W 096°08'0 0.0
2016-May-21 11:32N 19°13' W 096°08'0 0.0
2016-May-21 10:32N 19°13' W 096°08'0 0.0
2016-May-21 09:32N 19°13' W 096°08'0 0.0
2016-May-21 08:29N 19°13' W 096°08'0 0.0
2016-May-21 07:32N 19°13' W 096°08'0 0.0
2016-May-21 06:32N 19°13' W 096°08'0 0.0
2016-May-21 05:29N 19°13' W 096°08'0 0.0
2016-May-21 04:32N 19°13' W 096°08'0 0.0
2016-May-21 03:32N 19°13' W 096°08'0 0.0
2016-May-21 02:29N 19°13' W 096°08'0 0.0
2016-May-21 01:32N 19°13' W 096°08'0 0.0
2016-May-21 00:32N 19°13' W 096°08'0 0.0
2016-May-20 23:32N 19°13' W 096°08'0 0.0
2016-May-20 22:32N 19°13' W 096°08'0 0.0
2016-May-20 21:29N 19°13' W 096°08'0 0.0
2016-May-20 20:32N 19°13' W 096°08'0 0.0
2016-May-20 19:32N 19°13' W 096°08'0 0.0
2016-May-20 18:32N 19°13' W 096°08'0 0.0
2016-May-20 17:32N 19°13' W 096°08'0 0.0
2016-May-20 16:32N 19°13' W 096°08'0 0.0
2016-May-20 15:32N 19°13' W 096°08'0 0.0
2016-May-20 14:32N 19°13' W 096°08'0 0.0
2016-May-20 13:32N 19°13' W 096°08'0 0.0
2016-May-20 12:29N 19°13' W 096°08'0 0.0
2016-May-20 11:33N 19°13' W 096°08'4 4.2
2016-May-20 10:34N 19°12' W 096°04'6 6.1
2016-May-20 09:33N 19°17' W 096°00'4 4.3
2016-May-20 08:33N 19°21' W 096°00'10 9.9
2016-May-20 07:33N 19°31' W 095°58'1917.2
2016-May-20 06:25N 19°50' W 095°54'3517.0
2016-May-20 04:21N 20°24' W 095°48'1517.2
2016-May-20 03:29N 20°39' W 095°45'52515.9
2016-May-18 18:26N 29°21' W 094°43'4 0.9
2016-May-18 14:11N 29°19' W 094°47'0 0.0
2016-May-18 08:05N 29°19' W 094°47'0 0.0
2016-May-18 07:20N 29°19' W 094°47'0 0.0
2016-May-18 06:26N 29°19' W 094°47'0 0.0
2016-May-18 05:20N 29°19' W 094°47'0 0.0
2016-May-18 04:33N 29°19' W 094°47'0 0.0
2016-May-17 14:30N 29°19' W 094°47'  
Track history (hours):
 
Tides and Currents Weather Stations Pressure Air Temp Water Temp Dewpoint Dewpoint Depression Visibility Wind Speed Wind Dir Waves Ship Positions

Eurasian Highway

Last reported at 2016-May-26 04:34 UTC. Time now 2016-May-27 06:35 UTC.
Position N 27°02' W 079°43'.

Length 199 m; draft 9 m.

Type: Cargo ship. MMSI: 432839000.

Date/timePositionNaut miles runAvg speedWind from/ knotsBaromVisibWave heightAir tempDewpointWater temp
2016-May-26 04:34N 27°02' W 079°43'2221.6
2016-May-26 03:33N 26°41' W 079°45'2121.3
2016-May-26 02:33N 26°19' W 079°48'2121.2
2016-May-26 01:33N 25°58' W 079°49'2121.0
2016-May-26 00:33N 25°38' W 079°53'  
2016-May-22 12:28N 20°25' W 096°20'1617.4
2016-May-22 11:33N 20°10' W 096°14'1717.4
2016-May-22 10:33N 19°53' W 096°09'1717.3
2016-May-22 09:33N 19°37' W 096°04'1717.4
2016-May-22 08:33N 19°20' W 095°57'1111.2
2016-May-22 07:33N 19°12' W 096°05'3 2.7
2016-May-22 06:32N 19°13' W 096°08'0 0.0
2016-May-22 05:32N 19°13' W 096°08'0 0.0
2016-May-22 04:32N 19°13' W 096°08'0 0.0
2016-May-22 03:32N 19°13' W 096°08'0 0.0
2016-May-22 02:29N 19°13' W 096°08'0 0.0
2016-May-22 01:32N 19°13' W 096°08'0 0.0
2016-May-22 00:32N 19°13' W 096°08'0 0.0
2016-May-21 23:32N 19°13' W 096°08'0 0.0
2016-May-21 22:32N 19°13' W 096°08'0 0.0
2016-May-21 21:32N 19°13' W 096°08'0 0.0
2016-May-21 20:32N 19°13' W 096°08'0 0.0
2016-May-21 19:32N 19°13' W 096°08'0 0.0
2016-May-21 18:32N 19°13' W 096°08'0 0.0
2016-May-21 17:32N 19°13' W 096°08'0 0.0
2016-May-21 16:29N 19°13' W 096°08'0 0.0
2016-May-21 15:32N 19°13' W 096°08'0 0.0
2016-May-21 14:32N 19°13' W 096°08'0 0.0
2016-May-21 13:32N 19°13' W 096°08'0 0.0
2016-May-21 12:29N 19°13' W 096°08'0 0.0
2016-May-21 11:32N 19°13' W 096°08'0 0.0
2016-May-21 10:32N 19°13' W 096°08'0 0.0
2016-May-21 09:32N 19°13' W 096°08'0 0.0
2016-May-21 08:29N 19°13' W 096°08'0 0.0
2016-May-21 07:32N 19°13' W 096°08'0 0.0
2016-May-21 06:32N 19°13' W 096°08'0 0.0
2016-May-21 05:29N 19°13' W 096°08'0 0.0
2016-May-21 04:32N 19°13' W 096°08'0 0.0
2016-May-21 03:32N 19°13' W 096°08'0 0.0
2016-May-21 02:29N 19°13' W 096°08'0 0.0
2016-May-21 01:32N 19°13' W 096°08'0 0.0
2016-May-21 00:32N 19°13' W 096°08'0 0.0
2016-May-20 23:32N 19°13' W 096°08'0 0.0
2016-May-20 22:32N 19°13' W 096°08'0 0.0
2016-May-20 21:29N 19°13' W 096°08'0 0.0
2016-May-20 20:32N 19°13' W 096°08'0 0.0
2016-May-20 19:32N 19°13' W 096°08'0 0.0
2016-May-20 18:32N 19°13' W 096°08'0 0.0
2016-May-20 17:32N 19°13' W 096°08'0 0.0
2016-May-20 16:32N 19°13' W 096°08'0 0.0
2016-May-20 15:32N 19°13' W 096°08'0 0.0
2016-May-20 14:32N 19°13' W 096°08'0 0.0
2016-May-20 13:32N 19°13' W 096°08'0 0.0
2016-May-20 12:29N 19°13' W 096°08'0 0.0
2016-May-20 11:33N 19°13' W 096°08'4 4.2
2016-May-20 10:34N 19°12' W 096°04'6 6.1
2016-May-20 09:33N 19°17' W 096°00'4 4.3
2016-May-20 08:33N 19°21' W 096°00'10 9.9
2016-May-20 07:33N 19°31' W 095°58'1917.2
2016-May-20 06:25N 19°50' W 095°54'3517.0
2016-May-20 04:21N 20°24' W 095°48'1517.2
2016-May-20 03:29N 20°39' W 095°45'52515.9
2016-May-18 18:26N 29°21' W 094°43'4 0.9
2016-May-18 14:11N 29°19' W 094°47'0 0.0
2016-May-18 08:05N 29°19' W 094°47'0 0.0
2016-May-18 07:20N 29°19' W 094°47'0 0.0
2016-May-18 06:26N 29°19' W 094°47'0 0.0
2016-May-18 05:20N 29°19' W 094°47'0 0.0
2016-May-18 04:33N 29°19' W 094°47'0 0.0
2016-May-17 14:30N 29°19' W 094°47'  

Dump ship's entire track history